Wake Forest, NC

10:09 AM EDT on April 26, 2015 (GMT -0400)
Heritage S. Marshall Farm | | Change Station
CLOSE
Current Station
Personal Weather Station
Location: Wake Forest, NC
Elevation: 280 ft
Nearby Weather Stations

Elev 280 ft 35.94 °N, 78.50 °W | Updated 6 minutes ago

Fog
Fog
48.6 °F
Feels Like 49 °F
N
1.7
Wind Variable Wind from North

Today
High -- | Low -- °F
--% Chance of Precip.
Yesterday
High -- | Low -- °F
Precip. -- in
6:27 AM 7:56 PM
First Quarter, 56% visible
Pressure 29.69 in
Visibility 7.0 miles
Clouds Mostly Cloudy 800 ft
Overcast 1200 ft
Windchill 49 °F
Dew Point 46 °F
Humidity 92%
Rainfall 0.02 in
Snow Depth Not available.
UV 2 out of 12
Pollen 7.20 out of 12
Air Quality Not available.
Flu Activity Sporadic
METAR KLHZ 261355Z AUTO 01005KT 7SM BKN008 OVC012 08/07 A2969 RMK AO2

More Conditions Fewer Conditions

Pressure 29.69 in
Visibility 7.0 miles
Clouds Mostly Cloudy 800 ft
Overcast 1200 ft
Windchill 49 °F
Dew Point 46 °F
Humidity 92%
Rainfall 0.02 in
Snow Depth Not available.
UV 2 out of 12
Pollen 7.20 out of 12
Air Quality Not available.
Flu Activity Sporadic
METAR KLHZ 261355Z AUTO 01005KT 7SM BKN008 OVC012 08/07 A2969 RMK AO2

More Conditions Fewer Conditions

The full scope of the disaster following a powerful 7.8-magnitude earthquake in Nepal may not come into view for days, but global charities are already sending emergency aid. Click to see how you can help.

10-Day Weather Forecast

Almanac

Astronomy

Apr. 26, 2015 Rise Set
Actual Time
Civil Twilight
Nautical Twilight
Astronomical Twilight
Moon
Length of Visible Light
Length of Day
Tomorrow will be .
, % of the Moon is Illuminated

Today's Extremes

State Highs State Lows

Community

WunderPhotos

Upload Photos

1,817,007 photos uploaded!

WunderBlogs® & News

Nearby

Air Quality

  Air Quality AQ Index Pollutant
Not available.

Snow Depth

Station Depth Elevation

Earthquake Activity

City Distance Mag. Time & Date
Minimum magnitude displayed is 2.5.

Coastal Water Temperatures

Place Temperature

Stations

Nearby Weather Stations

Station Location Temp. Windchill Dew Point Humidity Wind Precip. Elev Updated Type